createdAt,value
2018-11-04T00:01:50.109Z,12.48
2018-11-04T00:04:19.560Z,12.48
2018-11-04T00:06:48.220Z,12.49
2018-11-04T00:09:17.281Z,12.46
2018-11-04T00:11:46.561Z,12.49
2018-11-04T00:14:15.327Z,12.50
2018-11-04T00:16:44.027Z,12.49
2018-11-04T00:19:12.830Z,12.51
2018-11-04T00:21:41.501Z,12.51
2018-11-04T00:24:10.274Z,12.51
2018-11-04T00:26:38.904Z,12.51
2018-11-04T00:29:07.598Z,12.51
2018-11-04T00:31:36.301Z,12.52
2018-11-04T00:34:05.236Z,12.53
2018-11-04T00:36:33.892Z,12.52
2018-11-04T00:39:02.805Z,12.53
2018-11-04T00:41:31.508Z,12.53
2018-11-04T00:44:00.174Z,12.53
2018-11-04T00:46:28.835Z,12.54
2018-11-04T00:48:57.555Z,12.53
2018-11-04T00:51:26.207Z,12.54
2018-11-04T00:53:54.900Z,12.50
2018-11-04T00:56:23.633Z,12.53
2018-11-04T00:58:52.313Z,12.53
2018-11-04T01:01:21.107Z,12.54
2018-11-04T01:03:49.888Z,12.55
2018-11-04T01:06:18.598Z,12.53
2018-11-04T01:08:47.293Z,12.54
2018-11-04T01:11:15.960Z,12.55
2018-11-04T01:13:44.632Z,12.55
2018-11-04T01:16:13.339Z,12.55
2018-11-04T01:18:42.024Z,12.55
2018-11-04T01:21:10.782Z,12.57
2018-11-04T01:23:39.404Z,12.57
2018-11-04T01:26:08.149Z,12.57
2018-11-04T01:28:36.815Z,12.57
2018-11-04T01:31:05.531Z,12.58
2018-11-04T01:33:34.190Z,12.58
2018-11-04T01:36:02.856Z,12.58
2018-11-04T01:38:31.500Z,12.58
2018-11-04T01:41:00.172Z,12.57
2018-11-04T01:43:28.879Z,12.58
2018-11-04T01:45:57.569Z,12.57
2018-11-04T01:48:26.277Z,12.55
2018-11-04T01:50:55.029Z,12.58
2018-11-04T01:53:23.692Z,12.57
2018-11-04T01:55:52.388Z,12.58
2018-11-04T01:58:21.052Z,12.57
2018-11-04T02:00:49.743Z,12.58
2018-11-04T02:03:18.438Z,12.59
2018-11-04T02:05:47.116Z,12.58
2018-11-04T02:08:15.819Z,12.58
2018-11-04T02:10:44.551Z,12.58
2018-11-04T02:13:13.220Z,12.58
2018-11-04T02:15:41.892Z,12.58
2018-11-04T02:18:10.584Z,12.59
2018-11-04T02:20:39.296Z,12.59
2018-11-04T02:23:07.959Z,12.60
2018-11-04T02:25:36.649Z,12.60
2018-11-04T02:28:05.452Z,12.59
2018-11-04T02:30:34.120Z,12.60
2018-11-04T02:33:02.821Z,12.61
2018-11-04T02:35:31.524Z,12.61
2018-11-04T02:38:00.196Z,12.60
2018-11-04T02:40:28.883Z,12.62
2018-11-04T02:42:57.580Z,12.61
2018-11-04T02:45:26.320Z,12.63
2018-11-04T02:47:55.149Z,12.61
2018-11-04T02:50:23.830Z,12.61
2018-11-04T02:52:55.261Z,12.58
2018-11-04T02:55:24.106Z,12.62
2018-11-04T02:57:52.809Z,12.61
2018-11-04T03:00:21.484Z,12.61
2018-11-04T03:02:50.170Z,12.60
2018-11-04T03:05:18.856Z,12.60
2018-11-04T03:07:47.535Z,12.60
2018-11-04T03:10:16.225Z,12.59
2018-11-04T03:12:44.901Z,12.60
2018-11-04T03:15:13.631Z,12.60
2018-11-04T03:17:42.297Z,12.58
2018-11-04T03:20:11.023Z,12.59
2018-11-04T03:22:39.708Z,12.59
2018-11-04T03:25:08.412Z,12.54
2018-11-04T03:27:37.084Z,12.58
2018-11-04T03:30:06.641Z,12.58
2018-11-04T03:32:35.348Z,12.57
2018-11-04T03:35:04.073Z,12.58
2018-11-04T03:37:32.757Z,12.58
2018-11-04T03:40:01.632Z,12.57
2018-11-04T03:42:30.296Z,12.57
2018-11-04T03:44:58.999Z,12.58
2018-11-04T03:47:27.664Z,12.58
2018-11-04T03:49:56.343Z,12.58
2018-11-04T03:52:25.023Z,12.58
2018-11-04T03:54:53.740Z,12.61
2018-11-04T03:57:22.427Z,12.60
2018-11-04T03:59:51.095Z,12.60
2018-11-04T04:02:19.769Z,12.60
2018-11-04T04:04:48.467Z,12.61
2018-11-04T04:07:17.172Z,12.57
2018-11-04T04:09:45.868Z,12.60
2018-11-04T04:12:14.563Z,12.60
2018-11-04T04:14:43.311Z,12.59
2018-11-04T04:17:11.990Z,12.58
2018-11-04T04:19:40.721Z,12.56
2018-11-04T04:22:10.028Z,12.54
2018-11-04T04:24:38.808Z,12.51
2018-11-04T04:27:07.519Z,12.48
2018-11-04T04:29:36.310Z,12.44
2018-11-04T04:32:05.117Z,12.40
2018-11-04T04:34:34.129Z,12.33
2018-11-04T04:37:02.800Z,12.31
2018-11-04T04:39:31.519Z,12.26
2018-11-04T04:42:00.218Z,12.22
2018-11-04T04:44:28.903Z,12.19
2018-11-04T04:46:57.577Z,12.12
2018-11-04T04:49:26.232Z,12.09
2018-11-04T04:51:54.944Z,12.04
2018-11-04T04:54:23.625Z,12.00
2018-11-04T04:56:52.425Z,11.95
2018-11-04T04:59:21.575Z,11.91
2018-11-04T05:01:50.228Z,11.87
2018-11-04T05:04:18.920Z,11.83
2018-11-04T05:06:48.054Z,11.81
2018-11-04T05:09:16.869Z,11.78
2018-11-04T05:11:45.556Z,11.75
2018-11-04T05:14:14.256Z,11.73
2018-11-04T05:16:42.943Z,11.71
2018-11-04T05:19:11.651Z,11.67
2018-11-04T05:21:40.316Z,11.63
2018-11-04T05:24:08.989Z,11.60
2018-11-04T05:26:37.699Z,11.58
2018-11-04T05:29:06.405Z,11.54
2018-11-04T05:31:35.101Z,11.51
2018-11-04T05:34:03.805Z,11.47
2018-11-04T05:36:32.543Z,11.46
2018-11-04T05:39:01.205Z,11.42
2018-11-04T05:41:29.868Z,11.39
2018-11-04T05:43:58.571Z,11.37
2018-11-04T05:46:27.292Z,11.35
2018-11-04T05:48:56.162Z,11.33
2018-11-04T05:51:24.849Z,11.31
2018-11-04T05:53:53.525Z,11.29
2018-11-04T05:56:22.200Z,11.27
2018-11-04T05:58:50.888Z,11.26
2018-11-04T06:01:19.569Z,11.26
2018-11-04T06:03:48.231Z,11.25
2018-11-04T06:06:16.920Z,11.24
2018-11-04T06:08:45.611Z,11.23
2018-11-04T06:11:14.280Z,11.22
2018-11-04T06:13:42.970Z,11.21
2018-11-04T06:16:11.685Z,11.22
2018-11-04T06:18:40.788Z,11.21
2018-11-04T06:21:09.491Z,11.21
2018-11-04T06:23:38.167Z,11.21
2018-11-04T06:26:06.848Z,11.20
2018-11-04T06:28:35.536Z,11.21
2018-11-04T06:31:04.242Z,11.19
2018-11-04T06:33:33.040Z,11.17
2018-11-04T06:36:01.728Z,11.17
2018-11-04T06:38:30.407Z,11.14
2018-11-04T06:40:59.144Z,11.13
2018-11-04T06:43:27.845Z,11.10
2018-11-04T06:45:56.545Z,11.10
2018-11-04T06:48:25.265Z,11.09
2018-11-04T06:50:54.871Z,11.09
2018-11-04T06:53:23.553Z,11.06
2018-11-04T06:55:52.397Z,11.06
2018-11-04T06:58:21.112Z,11.04
2018-11-04T07:00:49.835Z,11.03
2018-11-04T07:03:18.531Z,11.01
2018-11-04T07:05:47.220Z,11.00
2018-11-04T07:08:15.893Z,10.99
2018-11-04T07:10:44.631Z,10.99
2018-11-04T07:13:13.316Z,10.99
2018-11-04T07:15:42.012Z,10.97
2018-11-04T07:18:10.715Z,11.00
2018-11-04T07:20:39.532Z,10.99
2018-11-04T07:23:08.244Z,10.99
2018-11-04T07:25:37.083Z,10.99
2018-11-04T07:28:05.965Z,11.01
2018-11-04T07:30:34.645Z,11.04
2018-11-04T07:33:03.349Z,11.06
2018-11-04T07:35:32.080Z,11.09
2018-11-04T07:38:00.793Z,11.12
2018-11-04T07:40:30.335Z,11.16
2018-11-04T07:42:59.024Z,11.19
2018-11-04T07:45:27.724Z,11.22
2018-11-04T07:47:56.544Z,11.24
2018-11-04T07:50:25.306Z,11.28
2018-11-04T07:52:54.000Z,11.33
2018-11-04T07:55:23.177Z,11.35
2018-11-04T07:57:51.879Z,11.40
2018-11-04T08:00:20.588Z,11.44
2018-11-04T08:02:49.294Z,11.47
2018-11-04T08:05:17.989Z,11.50
2018-11-04T08:07:46.693Z,11.53
2018-11-04T08:10:15.404Z,11.57
2018-11-04T08:12:44.188Z,11.61
2018-11-04T08:15:12.876Z,11.64
2018-11-04T08:17:42.276Z,11.69
2018-11-04T08:20:11.680Z,11.72
2018-11-04T08:22:40.784Z,11.77
2018-11-04T08:25:10.963Z,11.82
2018-11-04T08:27:43.062Z,11.88
2018-11-04T08:30:13.192Z,11.93
2018-11-04T08:32:42.103Z,11.99
2018-11-04T08:35:11.580Z,12.04
2018-11-04T08:37:40.327Z,12.10
2018-11-04T08:40:09.809Z,12.16
2018-11-04T08:42:38.438Z,12.23
2018-11-04T08:45:07.580Z,12.29
2018-11-04T08:47:36.387Z,12.33
2018-11-04T08:50:06.260Z,12.38
2018-11-04T08:52:35.625Z,12.43
2018-11-04T08:55:04.864Z,12.48
2018-11-04T08:57:33.652Z,12.49
2018-11-04T09:00:02.656Z,12.55
2018-11-04T09:02:31.422Z,12.59
2018-11-04T09:05:00.244Z,12.63
2018-11-04T09:07:29.092Z,12.67
2018-11-04T09:09:57.857Z,12.70
2018-11-04T09:12:26.504Z,12.74
2018-11-04T09:14:55.183Z,12.78
2018-11-04T09:17:23.869Z,12.82
2018-11-04T09:19:52.544Z,12.82
2018-11-04T09:22:21.259Z,12.83
2018-11-04T09:24:49.927Z,12.84
2018-11-04T09:27:18.571Z,12.85
2018-11-04T09:29:47.228Z,12.85
2018-11-04T09:32:16.044Z,12.85
2018-11-04T09:34:44.803Z,12.85
2018-11-04T09:37:13.389Z,12.86
2018-11-04T09:39:42.052Z,12.88
2018-11-04T09:42:10.743Z,12.91
2018-11-04T09:44:39.431Z,12.95
2018-11-04T09:47:08.160Z,12.99
2018-11-04T09:49:37.003Z,13.02
2018-11-04T09:52:06.003Z,13.08
2018-11-04T09:54:34.682Z,13.11
2018-11-04T09:57:03.468Z,13.15
2018-11-04T09:59:32.196Z,13.18
2018-11-04T10:02:01.045Z,13.23
2018-11-04T10:04:29.740Z,13.29
2018-11-04T10:06:58.464Z,13.32
2018-11-04T10:09:27.191Z,13.32
2018-11-04T10:11:55.896Z,13.39
2018-11-04T10:14:24.569Z,13.40
2018-11-04T10:16:53.268Z,13.42
2018-11-04T10:19:22.140Z,13.43
2018-11-04T10:21:50.712Z,13.45
2018-11-04T10:24:19.480Z,13.45
2018-11-04T10:26:48.239Z,13.49
2018-11-04T10:29:16.975Z,13.52
2018-11-04T10:31:45.649Z,13.58
2018-11-04T10:34:14.369Z,13.67
2018-11-04T10:36:43.254Z,13.76
2018-11-04T10:39:12.986Z,13.87
2018-11-04T10:41:42.449Z,13.97
2018-11-04T10:44:11.179Z,14.05
2018-11-04T10:46:39.911Z,14.10
2018-11-04T10:49:08.636Z,14.13
2018-11-04T10:51:37.326Z,14.17
2018-11-04T10:54:06.066Z,14.22
2018-11-04T10:56:34.728Z,14.23
2018-11-04T10:59:03.454Z,14.27
2018-11-04T11:01:32.155Z,14.33
2018-11-04T11:04:00.843Z,14.36
2018-11-04T11:06:29.516Z,14.40
2018-11-04T11:08:58.289Z,14.44
2018-11-04T11:11:27.027Z,14.47
2018-11-04T11:13:55.717Z,14.49
2018-11-04T11:16:24.412Z,14.53
2018-11-04T11:18:53.129Z,14.60
2018-11-04T11:21:21.889Z,14.64
2018-11-04T11:23:50.606Z,14.67
2018-11-04T11:26:20.216Z,14.78
2018-11-04T11:28:48.947Z,14.84
2018-11-04T11:31:17.644Z,14.90
2018-11-04T11:33:46.342Z,14.97
2018-11-04T11:36:15.048Z,15.05
2018-11-04T11:38:43.846Z,15.08
2018-11-04T11:41:12.540Z,15.12
2018-11-04T11:43:41.260Z,15.17
2018-11-04T11:46:09.953Z,15.19
2018-11-04T11:48:38.657Z,15.22
2018-11-04T11:51:07.345Z,15.25
2018-11-04T11:53:36.024Z,15.25
2018-11-04T11:56:04.784Z,15.23
2018-11-04T11:58:33.496Z,15.22
2018-11-04T12:01:02.228Z,15.21
2018-11-04T12:03:30.914Z,15.23
2018-11-04T12:05:59.591Z,15.24
2018-11-04T12:08:28.487Z,15.35
2018-11-04T12:10:57.165Z,15.46
2018-11-04T12:13:25.828Z,15.60
2018-11-04T12:15:54.489Z,15.72
2018-11-04T12:18:23.208Z,15.79
2018-11-04T12:20:51.902Z,15.89
2018-11-04T12:23:20.608Z,16.05
2018-11-04T12:25:49.293Z,16.12
2018-11-04T12:28:17.966Z,16.05
2018-11-04T12:30:46.668Z,16.00
2018-11-04T12:33:15.348Z,15.99
2018-11-04T12:35:44.035Z,15.99
2018-11-04T12:38:12.721Z,15.97
2018-11-04T12:40:41.398Z,15.93
2018-11-04T12:43:10.077Z,15.84
2018-11-04T12:45:38.798Z,15.76
2018-11-04T12:48:07.492Z,15.71
2018-11-04T12:50:36.171Z,15.70
2018-11-04T12:53:04.862Z,15.70
2018-11-04T12:55:33.538Z,15.72
2018-11-04T12:58:02.209Z,15.72
2018-11-04T13:00:30.923Z,15.70
2018-11-04T13:02:59.602Z,15.70
2018-11-04T13:05:28.275Z,15.72
2018-11-04T13:07:56.990Z,15.74
2018-11-04T13:10:25.692Z,15.78
2018-11-04T13:12:54.407Z,15.81
2018-11-04T13:15:23.085Z,15.85
2018-11-04T13:17:51.768Z,15.86
2018-11-04T13:20:20.424Z,15.84
2018-11-04T13:22:49.113Z,15.82
2018-11-04T13:25:18.014Z,15.80
2018-11-04T13:27:46.731Z,15.78
2018-11-04T13:30:15.571Z,15.76
2018-11-04T13:32:44.327Z,15.76
2018-11-04T13:35:13.036Z,15.74
2018-11-04T13:37:41.733Z,15.74
2018-11-04T13:40:11.422Z,15.71
2018-11-04T13:42:40.206Z,15.68
2018-11-04T13:45:09.235Z,15.64
2018-11-04T13:47:38.080Z,15.59
2018-11-04T13:50:08.772Z,15.54
2018-11-04T13:52:37.443Z,15.47
2018-11-04T13:55:06.935Z,15.39
2018-11-04T13:57:35.591Z,15.31
2018-11-04T14:00:04.435Z,15.25
2018-11-04T14:02:33.132Z,15.20
2018-11-04T14:05:01.810Z,15.14
2018-11-04T14:07:30.786Z,15.09
2018-11-04T14:09:59.444Z,15.03
2018-11-04T14:12:28.154Z,14.99
2018-11-04T14:14:57.152Z,14.96
2018-11-04T14:17:25.821Z,14.93
2018-11-04T14:19:54.520Z,14.91
2018-11-04T14:22:23.197Z,14.89
2018-11-04T14:24:51.893Z,14.85
2018-11-04T14:27:22.376Z,14.81
2018-11-04T14:29:51.048Z,14.76
2018-11-04T14:32:19.756Z,14.71
2018-11-04T14:34:48.412Z,14.66
2018-11-04T14:37:17.199Z,14.63
2018-11-04T14:39:46.505Z,14.59
2018-11-04T14:42:16.192Z,14.55
2018-11-04T14:44:45.756Z,14.52
2018-11-04T14:47:14.636Z,14.48
2018-11-04T14:49:43.443Z,14.44
2018-11-04T14:52:12.309Z,14.40
2018-11-04T14:54:40.961Z,14.33
2018-11-04T14:57:09.707Z,14.34
2018-11-04T14:59:38.535Z,14.30
2018-11-04T15:02:07.283Z,14.26
2018-11-04T15:04:36.004Z,14.22
2018-11-04T15:07:12.088Z,14.18
2018-11-04T15:09:41.259Z,14.13
2018-11-04T15:12:11.007Z,14.09
2018-11-04T15:14:39.720Z,14.05
2018-11-04T15:17:09.125Z,14.02
2018-11-04T15:19:38.404Z,13.99
2018-11-04T15:22:07.091Z,13.97
2018-11-04T15:24:35.746Z,13.94
2018-11-04T15:27:04.627Z,13.92
2018-11-04T15:29:33.357Z,13.88
2018-11-04T15:32:02.036Z,13.82
2018-11-04T15:34:30.857Z,13.84
2018-11-04T15:36:59.493Z,13.81
2018-11-04T15:39:31.789Z,13.78
2018-11-04T15:42:00.487Z,13.77
2018-11-04T15:44:29.183Z,13.76
2018-11-04T15:46:57.856Z,13.73
2018-11-04T15:49:31.269Z,13.71
2018-11-04T15:51:59.941Z,13.69
2018-11-04T15:54:28.864Z,13.68
2018-11-04T15:57:01.713Z,13.66
2018-11-04T15:59:30.362Z,13.65
2018-11-04T16:01:59.439Z,13.63
2018-11-04T16:04:28.375Z,13.63
2018-11-04T16:06:57.303Z,13.61
2018-11-04T16:09:26.128Z,13.57
2018-11-04T16:11:55.487Z,13.55
2018-11-04T16:14:24.971Z,13.58
2018-11-04T16:16:53.732Z,13.57
2018-11-04T16:19:22.424Z,13.57
2018-11-04T16:21:51.137Z,13.53
2018-11-04T16:24:19.834Z,13.55
2018-11-04T16:26:48.470Z,13.54
2018-11-04T16:29:17.880Z,13.53
2018-11-04T16:31:46.781Z,13.51
2018-11-04T16:34:15.500Z,13.50
2018-11-04T16:36:44.240Z,13.49
2018-11-04T16:39:13.884Z,13.48
2018-11-04T16:41:42.676Z,13.48
2018-11-04T16:44:11.556Z,13.45
2018-11-04T16:46:40.285Z,13.42
2018-11-04T16:49:09.279Z,13.44
2018-11-04T16:51:38.406Z,13.42
2018-11-04T16:54:07.409Z,13.41
2018-11-04T16:56:36.445Z,13.39
2018-11-04T16:59:05.504Z,13.37
2018-11-04T17:01:34.230Z,13.34
2018-11-04T17:04:02.965Z,13.33
2018-11-04T17:06:32.497Z,13.27
2018-11-04T17:09:01.378Z,13.28
2018-11-04T17:11:30.291Z,13.25
2018-11-04T17:13:58.901Z,13.24
2018-11-04T17:16:27.633Z,13.22
2018-11-04T17:18:56.333Z,13.21
2018-11-04T17:21:25.050Z,13.18
2018-11-04T17:23:53.730Z,13.13
2018-11-04T17:26:22.475Z,13.16
2018-11-04T17:28:51.142Z,13.13
2018-11-04T17:31:20.631Z,13.09
2018-11-04T17:33:49.377Z,13.11
2018-11-04T17:36:18.123Z,13.10
2018-11-04T17:38:46.876Z,13.07
2018-11-04T17:41:15.620Z,13.08
2018-11-04T17:43:44.329Z,13.06
2018-11-04T17:46:12.984Z,13.01
2018-11-04T17:48:41.696Z,13.03
2018-11-04T17:51:10.353Z,13.03
2018-11-04T17:53:39.075Z,13.02
2018-11-04T17:56:08.242Z,13.02
2018-11-04T17:58:40.187Z,12.97
2018-11-04T18:01:08.884Z,12.99
2018-11-04T18:03:37.528Z,12.98
2018-11-04T18:06:06.310Z,12.96
2018-11-04T18:08:34.960Z,12.96
2018-11-04T18:11:03.648Z,12.97
2018-11-04T18:13:32.348Z,12.97
2018-11-04T18:16:01.051Z,12.97
2018-11-04T18:18:29.706Z,12.96
2018-11-04T18:20:58.384Z,12.96
2018-11-04T18:23:27.026Z,12.95
2018-11-04T18:25:55.700Z,12.92
2018-11-04T18:28:24.355Z,12.95
2018-11-04T18:30:53.015Z,12.93
2018-11-04T18:33:21.712Z,12.90
2018-11-04T18:35:50.392Z,12.92
2018-11-04T18:38:19.041Z,12.90
2018-11-04T18:40:47.754Z,12.87
2018-11-04T18:43:16.417Z,12.84
2018-11-04T18:45:45.093Z,12.87
2018-11-04T18:48:13.761Z,12.86
2018-11-04T18:50:42.419Z,12.85
2018-11-04T18:53:11.094Z,12.81
2018-11-04T18:55:39.760Z,12.80
2018-11-04T18:58:08.435Z,12.79
2018-11-04T19:00:37.147Z,12.78
2018-11-04T19:03:06.064Z,12.76
2018-11-04T19:05:34.922Z,12.75
2018-11-04T19:08:03.568Z,12.74
2018-11-04T19:10:32.260Z,12.72
2018-11-04T19:13:00.996Z,12.71
2018-11-04T19:15:30.338Z,12.70
2018-11-04T19:17:59.079Z,12.68
2018-11-04T19:20:27.774Z,12.68
2018-11-04T19:22:56.567Z,12.67
2018-11-04T19:25:25.783Z,12.67
2018-11-04T19:27:54.468Z,12.67
2018-11-04T19:30:23.129Z,12.66
2018-11-04T19:32:51.826Z,12.65
2018-11-04T19:35:20.560Z,12.64
2018-11-04T19:37:49.276Z,12.61
2018-11-04T19:40:18.310Z,12.62
2018-11-04T19:42:47.020Z,12.59
2018-11-04T19:45:15.684Z,12.59
2018-11-04T19:47:44.364Z,12.58
2018-11-04T19:50:13.684Z,12.57
2018-11-04T19:52:42.728Z,12.56
2018-11-04T19:55:12.147Z,12.54
2018-11-04T19:57:40.782Z,12.53
2018-11-04T20:00:10.608Z,12.53
2018-11-04T20:02:39.271Z,12.51
2018-11-04T20:05:09.375Z,12.51
2018-11-04T20:07:37.975Z,12.50
2018-11-04T20:10:10.356Z,12.49
2018-11-04T20:12:44.181Z,12.48
2018-11-04T20:15:12.836Z,12.47
2018-11-04T20:17:41.490Z,12.46
2018-11-04T20:20:11.040Z,12.45
2018-11-04T20:22:39.633Z,12.45
2018-11-04T20:25:13.494Z,12.45
2018-11-04T20:27:42.251Z,12.43
2018-11-04T20:30:12.191Z,12.41
2018-11-04T20:32:46.142Z,12.41
2018-11-04T20:35:15.527Z,12.39
2018-11-04T20:37:44.646Z,12.35
2018-11-04T20:40:18.421Z,12.37
2018-11-04T20:42:48.083Z,12.36
2018-11-04T20:45:16.820Z,12.35
2018-11-04T20:47:50.680Z,12.33
2018-11-04T20:50:24.611Z,12.33
2018-11-04T20:52:53.344Z,12.31
2018-11-04T20:55:22.075Z,12.31
2018-11-04T20:57:57.660Z,12.28
2018-11-04T21:00:26.411Z,12.27
2018-11-04T21:02:55.525Z,12.26
2018-11-04T21:05:24.363Z,12.26
2018-11-04T21:07:53.461Z,12.25
2018-11-04T21:10:22.176Z,12.23
2018-11-04T21:12:51.073Z,12.22
2018-11-04T21:15:19.797Z,12.20
2018-11-04T21:17:48.568Z,12.20
2018-11-04T21:20:17.363Z,12.19
2018-11-04T21:22:46.048Z,12.18
2018-11-04T21:25:14.867Z,12.17
2018-11-04T21:27:43.665Z,12.17
2018-11-04T21:30:13.221Z,12.14
2018-11-04T21:32:42.189Z,12.14
2018-11-04T21:35:10.932Z,12.13
2018-11-04T21:37:39.710Z,12.13
2018-11-04T21:40:09.472Z,12.11
2018-11-04T21:42:38.538Z,12.12
2018-11-04T21:45:08.877Z,12.11
2018-11-04T21:47:37.634Z,12.10
2018-11-04T21:50:07.040Z,12.10
2018-11-04T21:52:35.717Z,12.08
2018-11-04T21:55:04.513Z,12.07
2018-11-04T21:57:33.216Z,12.06
2018-11-04T22:00:01.952Z,12.05
2018-11-04T22:02:30.800Z,12.04
2018-11-04T22:04:59.345Z,12.04
2018-11-04T22:07:28.035Z,12.01
2018-11-04T22:09:56.762Z,12.01
2018-11-04T22:12:25.448Z,11.99
2018-11-04T22:14:54.168Z,11.99
2018-11-04T22:17:22.998Z,11.97
2018-11-04T22:19:51.784Z,11.96
2018-11-04T22:22:20.769Z,11.95
2018-11-04T22:24:49.443Z,11.94
2018-11-04T22:27:18.237Z,11.93
2018-11-04T22:29:46.922Z,11.92
2018-11-04T22:32:16.109Z,11.92
2018-11-04T22:34:44.787Z,11.91
2018-11-04T22:37:13.452Z,11.90
2018-11-04T22:39:42.133Z,11.89
2018-11-04T22:42:10.848Z,11.88
2018-11-04T22:44:40.144Z,11.88
2018-11-04T22:47:08.860Z,11.87
2018-11-04T22:49:37.532Z,11.86
2018-11-04T22:52:06.344Z,11.85
2018-11-04T22:54:35.028Z,11.84
2018-11-04T22:57:03.744Z,11.84
2018-11-04T22:59:32.432Z,11.82
2018-11-04T23:02:01.167Z,11.82
2018-11-04T23:04:34.868Z,11.80
2018-11-04T23:07:03.524Z,11.79
2018-11-04T23:09:32.233Z,11.78
2018-11-04T23:12:00.902Z,11.76
2018-11-04T23:14:29.576Z,11.76
2018-11-04T23:16:58.248Z,11.76
2018-11-04T23:19:26.925Z,11.76
2018-11-04T23:21:55.652Z,11.75
2018-11-04T23:24:24.312Z,11.74
2018-11-04T23:26:53.030Z,11.73
2018-11-04T23:29:21.649Z,11.72
2018-11-04T23:31:50.315Z,11.71
2018-11-04T23:34:18.986Z,11.71
2018-11-04T23:36:47.671Z,11.70
2018-11-04T23:39:16.367Z,11.69
2018-11-04T23:41:45.060Z,11.67
2018-11-04T23:44:13.733Z,11.66
2018-11-04T23:46:42.427Z,11.66
2018-11-04T23:49:11.148Z,11.65
2018-11-04T23:51:39.834Z,11.65
2018-11-04T23:54:08.483Z,11.65
2018-11-04T23:56:37.156Z,11.64
2018-11-04T23:59:05.980Z,11.63
